Terminal Aerodrome Forecast
Issued by NWS Sioux Falls, SD

Home | Current Version | Previous Version | Graphics & Text | Print | Product List | Glossary On
Versions: 1 2 3 4 5 6 7 8 9 10 11 12 13 14 15 16 17 18 19 20 21 22
000
FTUS43 KFSD 221122
TAFSUX
TAF
KSUX 221122Z 2212/2312 09007KT P6SM OVC110
     FM221500 08008KT P6SM OVC060
     FM222200 09007KT P6SM VCTS SCT040 BKN070CB
     FM230400 09006KT P6SM BKN025
     FM230700 09006KT P6SM BKN035=

USA.gov is the U.S. government's official web portal to all federal, state and local government web resources and services.